^^
Meteo Knjazevac Station Historical Data
Daily Summary for August 4, 2022 Units:  English    Metric   Both
Daily Weekly Monthly Yearly Custom
  High: Low: Average:
Temperature: 44.2 °F 33.1 °F 36.9 °F
Dew Point: 39.6 °F 32.8 °F 35.6 °F
Humidity: 99% 83% 96%
Wind Speed: 12.2mph 0mph 4.9mph
Wind Gust: 15mph - -
Wind- - SSE
Pressure: 30.36 in 30.31 in -
Precipitation: 0.00 in    
Historical Graphs
 
 
Tabular Data for August 4, 2022
Time Temperature Dew Point Pressure Wind Wind Speed Wind Gust Humidity Rainfall Rate (Hourly) solar Conditions
00:04 36.3 °F 35.8 °F 30.36 in North 6.4 mph 9 mph 98% 0.00 in 0 W/m2
00:09 36.3 °F 35.5 °F 30.36 in NNW 8.6 mph 8 mph 96.7% 0.00 in 0 W/m2
00:14 36.4 °F 35.4 °F 30.36 in NNW 7.1 mph 10 mph 96% 0.00 in 0 W/m2
00:19 36.5 °F 35.5 °F 30.36 in North 8.4 mph 9 mph 96% 0.00 in 0 W/m2
00:24 36.5 °F 35.5 °F 30.36 in North 7.5 mph 11 mph 96% 0.00 in 0 W/m2
00:29 36.5 °F 35.5 °F 30.36 in North 5.6 mph 8 mph 96% 0.00 in 0 W/m2
00:34 36.5 °F 35.5 °F 30.36 in NNW 5.6 mph 7 mph 96% 0.00 in 0 W/m2
00:39 36.6 °F 35.5 °F 30.36 in North 5.8 mph 6 mph 96% 0.00 in 0 W/m2
00:44 36.7 °F 35.6 °F 30.35 in NNW 5.3 mph 7 mph 96% 0.00 in 0 W/m2
00:49 36.7 °F 35.5 °F 30.35 in North 4.1 mph 7 mph 95.5% 0.00 in 0 W/m2
00:54 36.6 °F 35.6 °F 30.35 in North 7.9 mph 6.5 mph 96% 0.00 in 0 W/m2
00:59 36.6 °F 35.6 °F 30.35 in North 3.7 mph 11 mph 96% 0.00 in 0 W/m2
01:04 36.6 °F 35.5 °F 30.35 in North 3.6 mph 5 mph 96% 0.00 in 0 W/m2
01:09 36.5 °F 35.5 °F 30.35 in NNW 2.2 mph 5 mph 96% 0.00 in 0 W/m2
01:14 36.5 °F 35.5 °F 30.35 in NNW 0.9 mph 3 mph 96% 0.00 in 0 W/m2
01:19 36.5 °F 35.6 °F 30.35 in NW 2.5 mph 2 mph 96.4% 0.00 in 0 W/m2
01:24 36.3 °F 35.8 °F 30.35 in North 2.1 mph 4 mph 98% 0.00 in 0 W/m2
01:29 36.3 °F 35.7 °F 30.35 in NNE 5.1 mph 6 mph 97.5% 0.00 in 0 W/m2
01:34 36.3 °F 35.6 °F 30.35 in North 3.1 mph 6 mph 97.2% 0.00 in 0 W/m2
01:39 36.4 °F 35.9 °F 30.35 in North 4 mph 5 mph 98% 0.00 in 0 W/m2
01:44 36.5 °F 36 °F 30.35 in NNE 2.9 mph 5 mph 98% 0.00 in 0 W/m2
01:49 36.3 °F 35.8 °F 30.35 in NNE 2.3 mph 3 mph 98% 0.00 in 0 W/m2
01:54 36.3 °F 35.8 °F 30.35 in North 3.8 mph 3 mph 98% 0.00 in 0 W/m2
01:59 36.3 °F 35.8 °F 30.35 in NNE 2.9 mph 5 mph 98% 0.00 in 0 W/m2
02:04 36.1 °F 35.6 °F 30.35 in NNE 3.7 mph 4 mph 98% 0.00 in 0 W/m2
02:09 36.1 °F 35.6 °F 30.35 in North 3.3 mph 5 mph 98% 0.00 in 0 W/m2
02:14 36.1 °F 35.6 °F 30.35 in North 2.2 mph 4 mph 98% 0.00 in 0 W/m2
02:19 36 °F 35.5 °F 30.35 in North 2.2 mph 2 mph 98% 0.00 in 0 W/m2
02:24 36 °F 35.5 °F 30.35 in NNE 3.7 mph 3.4 mph 98% 0.00 in 0 W/m2
02:29 36 °F 35.5 °F 30.35 in NNE 3.7 mph 6 mph 98% 0.00 in 0 W/m2
02:34 36 °F 35.5 °F 30.34 in NNE 4.1 mph 5 mph 98% 0.00 in 0 W/m2
02:39 35.9 °F 35.4 °F 30.34 in North 1.3 mph 5 mph 98% 0.00 in 0 W/m2
02:44 35.8 °F 35.3 °F 30.34 in North 1.4 mph 2 mph 98% 0.00 in 0 W/m2
02:49 35.8 °F 35.5 °F 30.34 in NW 2.1 mph 2 mph 98.8% 0.00 in 0 W/m2
02:54 35.8 °F 35.5 °F 30.34 in NNW 2.9 mph 3 mph 99% 0.00 in 0 W/m2
02:59 35.7 °F 35.4 °F 30.34 in North 3.9 mph 5 mph 99% 0.00 in 0 W/m2
03:04 35.6 °F 35.2 °F 30.34 in North 4.3 mph 6 mph 98.4% 0.00 in 0 W/m2
03:09 35.6 °F 35.1 °F 30.34 in North 2.7 mph 5 mph 98% 0.00 in 0 W/m2
03:14 35.6 °F 35.1 °F 30.34 in North 4 mph 4 mph 98% 0.00 in 0 W/m2
03:19 35.7 °F 35.2 °F 30.34 in North 2.9 mph 6 mph 98% 0.00 in 0 W/m2
03:24 35.6 °F 35.1 °F 30.34 in NNW 2.9 mph 3 mph 98% 0.00 in 0 W/m2
03:29 35.6 °F 35.1 °F 30.34 in NNW 2.6 mph 3 mph 98% 0.00 in 0 W/m2
03:34 35.6 °F 35.1 °F 30.34 in NNW 1.2 mph 3 mph 98% 0.00 in 0 W/m2
03:39 35.5 °F 35.2 °F 30.34 in North 2.6 mph 2 mph 98.9% 0.00 in 0 W/m2
03:44 35.4 °F 35.2 °F 30.33 in North 4.2 mph 3.6 mph 99% 0.00 in 0 W/m2
03:49 35.4 °F 35.2 °F 30.33 in North 4 mph 6 mph 99% 0.00 in 0 W/m2
03:54 35.4 °F 35.2 °F 30.33 in North 5.2 mph 6 mph 99% 0.00 in 0 W/m2
03:59 35.4 °F 35.2 °F 30.33 in North 3 mph 7 mph 99% 0.00 in 0 W/m2
04:04 35.2 °F 35 °F 30.33 in North 2.6 mph 5 mph 99% 0.00 in 0 W/m2
04:09 35.2 °F 35 °F 30.34 in NNE 3.3 mph 3.6 mph 99% 0.00 in 0 W/m2
04:14 35.2 °F 34.9 °F 30.33 in NNE 2.3 mph 5 mph 99% 0.00 in 0 W/m2
04:19 35.1 °F 34.8 °F 30.33 in North 3 mph 3 mph 99% 0.00 in 0 W/m2
04:24 34.9 °F 34.6 °F 30.33 in North 2 mph 3 mph 99% 0.00 in 0 W/m2
04:29 34.8 °F 34.5 °F 30.33 in NNW 2.7 mph 2 mph 99% 0.00 in 0 W/m2
04:34 34.7 °F 34.4 °F 30.34 in NNW 5.1 mph 5 mph 99% 0.00 in 0 W/m2
04:39 34.7 °F 34.4 °F 30.34 in NNW 4.2 mph 7 mph 99% 0.00 in 0 W/m2
04:44 34.7 °F 34.4 °F 30.34 in North 1.9 mph 6 mph 99% 0.00 in 0 W/m2
04:49 34.7 °F 34.4 °F 30.34 in NNW 0.8 mph 2 mph 99% 0.00 in 0 W/m2
04:54 34.6 °F 34.3 °F 30.34 in NW 1.3 mph 1.1 mph 99% 0.00 in 0 W/m2
04:59 34.5 °F 34.3 °F 30.34 in NNW 1.6 mph 2 mph 99% 0.00 in 0 W/m2
05:04 34.3 °F 34.1 °F 30.34 in NW 1.9 mph 2 mph 99% 0.00 in 0 W/m2
05:09 34.2 °F 33.9 °F 30.34 in NW 2.4 mph 4 mph 99% 0.00 in 0 W/m2
05:14 34.1 °F 33.8 °F 30.34 in NNW 1.9 mph 3 mph 99% 0.00 in 0 W/m2
05:19 34 °F 33.7 °F 30.34 in NW 1.9 mph 2 mph 99% 0.00 in 0 W/m2
05:24 33.8 °F 33.5 °F 30.34 in NNW 1.1 mph 2 mph 99% 0.00 in 0 W/m2
05:29 33.8 °F 33.5 °F 30.34 in NNW 2 mph 2 mph 99% 0.00 in 0 W/m2
05:34 33.6 °F 33.4 °F 30.34 in NNW 2.5 mph 3 mph 99% 0.00 in 0 W/m2
05:39 33.6 °F 33.4 °F 30.34 in NNW 2.6 mph 3 mph 99% 0.00 in 0 W/m2
05:44 33.7 °F 33.4 °F 30.34 in North 4 mph 4 mph 99% 0.00 in 0 W/m2
05:49 33.6 °F 33.4 °F 30.34 in NE 2 mph 5 mph 99% 0.00 in 0 W/m2
05:54 33.5 °F 33.3 °F 30.34 in NNE 1.9 mph 2 mph 99% 0.00 in 0 W/m2
05:59 33.3 °F 33.1 °F 30.34 in North 2.1 mph 2 mph 99% 0.00 in 0 W/m2
06:04 33.1 °F 32.8 °F 30.34 in ESE 1.3 mph 2 mph 99% 0.00 in 0 W/m2
06:09 33.1 °F 32.8 °F 30.34 in SE 1.8 mph 1.3 mph 99% 0.00 in 0 W/m2
06:14 33.1 °F 32.8 °F 30.34 in NNE 1.1 mph 2 mph 99% 0.00 in 0 W/m2
06:19 33.1 °F 32.8 °F 30.34 in NNW 1.4 mph 2 mph 99% 0.00 in 0 W/m2
06:24 33.1 °F 32.8 °F 30.34 in Calm   2 mph 99% 0.00 in 0 W/m2
06:29 33.1 °F 32.8 °F 30.34 in North 2.3 mph 2.5 mph 99% 0.00 in 0 W/m2
06:34 33.1 °F 32.8 °F 30.33 in North 1.5 mph 3 mph 99% 0.00 in 0 W/m2
06:39 33.1 °F 32.8 °F 30.34 in NNW 1.8 mph 2 mph 99% 0.00 in 0 W/m2
06:44 33.1 °F 32.8 °F 30.34 in SW 0.6 mph 3 mph 99% 0.00 in 1 W/m2
06:49 33.2 °F 32.9 °F 30.33 in South 1.4 mph 2 mph 99% 0.00 in 2 W/m2
06:54 33.3 °F 33 °F 30.33 in WNW 2.7 mph 2.7 mph 99% 0.00 in 4 W/m2
06:59 33.3 °F 33 °F 30.33 in Calm   4 mph 99% 0.00 in 7 W/m2
07:04 33.3 °F 33.1 °F 30.34 in NNE 1 mph 1.1 mph 99% 0.00 in 11 W/m2
07:09 33.3 °F 33.1 °F 30.34 in NE 1.3 mph 2 mph 99% 0.00 in 17 W/m2
07:14 33.3 °F 33 °F 30.34 in ENE 0.7 mph 2 mph 99% 0.00 in 21 W/m2
07:19 33.3 °F 33.1 °F 30.34 in NW 3.2 mph 2.2 mph 99% 0.00 in 24 W/m2
07:24 33.5 °F 33.3 °F 30.34 in NNW 7.6 mph 10 mph 99% 0.00 in 28 W/m2
07:29 34 °F 33.7 °F 30.34 in North 5.6 mph 11 mph 99% 0.00 in 35 W/m2
07:34 34.3 °F 34 °F 30.34 in North 3.4 mph 8 mph 99% 0.00 in 44 W/m2
07:39 34.5 °F 34.3 °F 30.34 in North 2 mph 6 mph 99% 0.00 in 49 W/m2
07:44 34.5 °F 34.3 °F 30.34 in East 2.2 mph 3 mph 99% 0.00 in 56 W/m2
07:49 34.4 °F 34.2 °F 30.34 in SSW 2.7 mph 2 mph 99% 0.00 in 66 W/m2
07:54 34.6 °F 34.3 °F 30.34 in NNW 2 mph 3 mph 99% 0.00 in 86 W/m2
07:59 34.9 °F 34.6 °F 30.34 in NNW 4 mph 5 mph 99% 0.00 in 101 W/m2
08:04 35.4 °F 35.2 °F 30.34 in North 3.6 mph 5 mph 99% 0.00 in 101 W/m2
08:09 36 °F 35.7 °F 30.35 in North 4.2 mph 5 mph 99% 0.00 in 102 W/m2
08:14 36.4 °F 36.2 °F 30.35 in NNE 5.4 mph 5.1 mph 99% 0.00 in 190 W/m2
08:19 37 °F 36.8 °F 30.35 in North 4.4 mph 9 mph 99% 0.00 in 193 W/m2
08:24 37.7 °F 37.2 °F 30.35 in North 5.1 mph 5 mph 98.2% 0.00 in 204 W/m2
08:29 38.2 °F 37.4 °F 30.35 in North 4.2 mph 7 mph 96.9% 0.00 in 176 W/m2
08:34 38.6 °F 37.5 °F 30.35 in North 7 mph 8 mph 95.7% 0.00 in 145 W/m2
08:39 38.7 °F 37.4 °F 30.35 in NNE 7.3 mph 8 mph 95% 0.00 in 160 W/m2
08:44 38.8 °F 37.5 °F 30.35 in NNE 7.8 mph 8 mph 94.9% 0.00 in 162 W/m2
08:49 39 °F 37.4 °F 30.35 in NNE 11.4 mph 12 mph 94.1% 0.00 in 231 W/m2
08:54 39.3 °F 37.4 °F 30.35 in North 10.2 mph 13 mph 93.3% 0.00 in 231 W/m2
08:59 39.5 °F 37.4 °F 30.35 in North 10.4 mph 12 mph 92.1% 0.00 in 232 W/m2
09:04 39.7 °F 37.3 °F 30.35 in North 9.3 mph 12 mph 91% 0.00 in 137 W/m2
09:09 39.6 °F 37.2 °F 30.35 in NNE 10.1 mph 12 mph 91% 0.00 in 115 W/m2
09:14 39.5 °F 37 °F 30.35 in North 7.3 mph 12 mph 90.6% 0.00 in 88 W/m2
09:19 39.3 °F 36.7 °F 30.35 in North 9.1 mph 8 mph 90.2% 0.00 in 115 W/m2
09:24 39.2 °F 36.5 °F 30.35 in North 9.9 mph 12 mph 90% 0.00 in 124 W/m2
09:29 39.4 °F 36.7 °F 30.35 in North 9 mph 14 mph 90% 0.00 in 124 W/m2
09:34 39.4 °F 36.7 °F 30.34 in North 9.8 mph 11 mph 90% 0.00 in 155 W/m2
09:39 39.5 °F 36.8 °F 30.34 in North 10.1 mph 11 mph 90% 0.00 in 172 W/m2
09:44 39.7 °F 37 °F 30.35 in North 11.5 mph 12 mph 90% 0.00 in 200 W/m2
09:49 39.8 °F 37.1 °F 30.35 in North 10.7 mph 13 mph 90% 0.00 in 422 W/m2
09:54 40.6 °F 37.9 °F 30.34 in North 8.8 mph 12 mph 89.9% 0.00 in 408 W/m2
09:59 41.5 °F 38.5 °F 30.34 in North 8.6 mph 12 mph 89.1% 0.00 in 422 W/m2
10:04 42.1 °F 38.8 °F 30.34 in North 8.3 mph 10 mph 88.1% 0.00 in 405 W/m2
10:09 42.5 °F 38.7 °F 30.34 in North 8.5 mph 10 mph 86.4% 0.00 in 396 W/m2
10:14 42.8 °F 38.7 °F 30.33 in North 10.1 mph 12 mph 85.4% 0.00 in 412 W/m2
10:19 43.1 °F 38.9 °F 30.33 in North 8.2 mph 12 mph 85% 0.00 in 412 W/m2
10:24 43.2 °F 39 °F 30.33 in North 8.6 mph 10 mph 85% 0.00 in 403 W/m2
10:29 43.3 °F 38.9 °F 30.33 in North 11.7 mph 13 mph 84.3% 0.00 in 417 W/m2
10:34 43.6 °F 39.1 °F 30.32 in North 9.1 mph 13 mph 84% 0.00 in 452 W/m2
10:39 44 °F 39.4 °F 30.32 in North 9 mph 10 mph 84% 0.00 in 474 W/m2
10:44 44 °F 39.4 °F 30.32 in North 10.2 mph 13 mph 83.7% 0.00 in 548 W/m2
10:49 44.1 °F 39.5 °F 30.32 in North 10.2 mph 12 mph 84% 0.00 in 481 W/m2
10:54 44.2 °F 39.6 °F 30.32 in North 10.3 mph 12 mph 83.6% 0.00 in 482 W/m2
10:59 44.2 °F 39.6 °F 30.32 in North 10.5 mph 12 mph 83.6% 0.00 in 476 W/m2
11:04 44 °F 39.2 °F 30.32 in North 11.3 mph 13 mph 83.2% 0.00 in 436 W/m2
11:09 44 °F 39.4 °F 30.32 in North 10.6 mph 15 mph 83.8% 0.00 in 455 W/m2
11:14 44.1 °F 39.2 °F 30.32 in North 11.5 mph 13 mph 83.2% 0.00 in 438 W/m2
11:19 43.9 °F 39.3 °F 30.31 in North 12.2 mph 14 mph 83.5% 0.00 in 441 W/m2
11:24 44.1 °F 39.5 °F 30.31 in North 10.6 mph 14 mph 84% 0.00 in 448 W/m2
11:29 44.2 °F 39.4 °F 30.31 in North 10.6 mph 12 mph 83.1% 0.00 in 444 W/m2
11:34 44.2 °F 39.4 °F 30.31 in North 10 mph 12 mph 83% 0.00 in 440 W/m2
Knjazevac, Serbia
Compliments of Weather Underground - 2 mb